Time;durP1;ratioP1;P1;durP2;ratioP2;P2;SDS_P1;SDS_P2;PMS_P1;PMS_P2;Temp;Humidity;BMP_temperature;BMP_pressure;BME280_temperature;BME280_humidity;BME280_pressure;Samples;Min_cycle;Max_cycle;Signal;HPM_P1;HPM_P2
2023/05/19 00:01:31;;;;;;;10.00;2.80;;;13.00;99.90;;;;;;4973661;28;20397;-61
2023/05/19 00:04:01;;;;;;;6.55;2.20;;;12.90;99.90;;;;;;4973524;28;20384;-68
2023/05/19 00:06:30;;;;;;;8.25;2.47;;;13.00;99.90;;;;;;4973494;28;20427;-68
2023/05/19 00:09:00;;;;;;;7.47;2.53;;;12.90;99.90;;;;;;4973104;28;20399;-68
2023/05/19 00:11:27;;;;;;;8.30;2.50;;;13.00;99.90;;;;;;4973353;28;20384;-68
2023/05/19 00:13:54;;;;;;;8.32;2.80;;;12.90;99.90;;;;;;4972525;28;21040;-68
2023/05/19 00:16:21;;;;;;;10.20;2.70;;;12.70;99.90;;;;;;4973380;28;20431;-68
2023/05/19 00:18:47;;;;;;;7.47;2.80;;;12.60;99.90;;;;;;4972681;28;20392;-68
2023/05/19 00:21:13;;;;;;;7.30;2.38;;;12.70;99.90;;;;;;4973589;28;20392;-68
2023/05/19 00:23:38;;;;;;;8.43;2.75;;;12.70;99.90;;;;;;4972640;28;20746;-68
2023/05/19 00:26:04;;;;;;;10.10;2.87;;;12.70;99.90;;;;;;4973263;28;20488;-68
2023/05/19 00:28:30;;;;;;;6.00;2.15;;;12.70;99.90;;;;;;4973320;28;20423;-68
2023/05/19 00:30:55;;;;;;;7.43;2.50;;;12.70;99.90;;;;;;4972466;28;20902;-68
2023/05/19 00:33:21;;;;;;;7.93;2.30;;;12.70;99.90;;;;;;4973591;28;20384;-68
2023/05/19 00:35:47;;;;;;;7.32;2.22;;;12.60;99.90;;;;;;4972171;28;20444;-68
2023/05/19 00:38:12;;;;;;;6.83;2.30;;;12.70;99.90;;;;;;4955693;28;20882;-68
2023/05/19 00:40:38;;;;;;;7.25;2.70;;;12.70;99.90;;;;;;4972531;28;20414;-68
2023/05/19 00:43:10;;;;;;;7.20;2.58;;;12.70;99.90;;;;;;4973006;28;20890;-68
2023/05/19 00:45:35;;;;;;;9.10;2.50;;;12.70;99.90;;;;;;4972118;28;20404;-68
2023/05/19 00:48:01;;;;;;;8.73;3.17;;;12.60;99.90;;;;;;4973022;28;20746;-68
2023/05/19 00:50:27;;;;;;;7.07;2.50;;;12.50;99.90;;;;;;4971834;28;20872;-68
2023/05/19 00:52:56;;;;;;;6.80;2.40;;;12.50;99.90;;;;;;4969659;28;20485;-68
2023/05/19 00:55:28;;;;;;;8.23;2.70;;;12.40;99.90;;;;;;4970974;28;20936;-68
2023/05/19 00:57:55;;;;;;;11.90;2.90;;;12.40;99.90;;;;;;4955643;28;21039;-68
2023/05/19 01:00:21;;;;;;;7.50;2.83;;;12.40;99.90;;;;;;4971647;28;20412;-68
2023/05/19 01:02:47;;;;;;;7.03;2.72;;;12.30;99.90;;;;;;4970439;28;20456;-68
2023/05/19 01:05:13;;;;;;;8.35;2.50;;;12.20;99.90;;;;;;4970930;28;20901;-68
2023/05/19 01:07:40;;;;;;;7.00;2.50;;;12.20;99.90;;;;;;4969570;28;20396;-69
2023/05/19 01:10:06;;;;;;;6.57;2.50;;;12.20;99.90;;;;;;4970380;28;20482;-68
2023/05/19 01:12:32;;;;;;;9.73;2.40;;;12.20;99.90;;;;;;4968686;28;20448;-61
2023/05/19 01:14:58;;;;;;;7.43;2.40;;;12.30;99.90;;;;;;4969904;28;20483;-68
2023/05/19 01:17:50;;;;;;;6.80;2.38;;;12.20;99.90;;;;;;4971434;28;20799;-68
2023/05/19 01:20:25;;;;;;;8.43;2.67;;;12.10;99.90;;;;;;4970657;28;20479;-66
2023/05/19 01:23:20;;;;;;;6.70;2.50;;;11.90;99.90;;;;;;4969793;28;20527;-68
2023/05/19 01:26:20;;;;;;;7.22;2.17;;;11.70;99.90;;;;;;4968695;28;20502;-65
2023/05/19 01:29:11;;;;;;;7.70;2.50;;;11.60;99.90;;;;;;4958824;28;20483;-68
2023/05/19 01:31:40;;;;;;;7.55;2.70;;;11.50;1.00;;;;;;4970220;28;20416;-67
2023/05/19 01:34:06;;;;;;;8.80;2.75;;;11.70;1.00;;;;;;4971534;28;20422;-68
2023/05/19 01:36:33;;;;;;;9.40;2.90;;;11.30;1.00;;;;;;4971500;28;20786;-61
2023/05/19 01:39:00;;;;;;;11.17;3.17;;;11.40;1.00;;;;;;4968943;28;20404;-68
2023/05/19 01:41:28;;;;;;;9.20;2.88;;;11.40;1.00;;;;;;4970136;28;20420;-69
2023/05/19 01:43:55;;;;;;;7.20;2.60;;;11.40;1.00;;;;;;4969489;28;20878;-68
2023/05/19 01:46:22;;;;;;;7.03;2.83;;;11.40;1.00;;;;;;4970098;28;20431;-68
2023/05/19 01:48:48;;;;;;;9.88;2.40;;;11.40;1.00;;;;;;4968204;28;20417;-68
2023/05/19 01:51:14;;;;;;;7.45;2.80;;;11.50;1.00;;;;;;4970340;28;20412;-68
2023/05/19 01:53:40;;;;;;;8.00;2.90;;;11.40;1.00;;;;;;4968418;28;20415;-67
2023/05/19 01:56:06;;;;;;;7.35;2.80;;;11.50;1.00;;;;;;4971029;28;20989;-68
2023/05/19 01:58:45;;;;;;;11.25;2.80;;;11.50;1.00;;;;;;4970188;28;20777;-61
2023/05/19 02:01:33;;;;;;;8.60;2.90;;;11.50;99.90;;;;;;4969610;28;20487;-68
2023/05/19 02:04:07;;;;;;;8.88;2.60;;;11.60;1.00;;;;;;4968171;28;20443;-66
2023/05/19 02:06:45;;;;;;;8.77;2.70;;;11.70;99.90;;;;;;4969302;28;20412;-60
2023/05/19 02:09:31;;;;;;;9.55;2.65;;;11.70;99.90;;;;;;4970276;28;20405;-67
2023/05/19 02:12:14;;;;;;;12.13;3.20;;;11.70;99.90;;;;;;4968878;28;20435;-67
2023/05/19 02:15:03;;;;;;;7.40;2.92;;;11.70;99.90;;;;;;4967761;28;20416;-68
2023/05/19 02:17:34;;;;;;;7.35;2.70;;;11.80;99.90;;;;;;4970205;28;20827;-68
2023/05/19 02:20:01;;;;;;;9.45;2.47;;;11.80;99.90;;;;;;4970287;28;20407;-68
2023/05/19 02:22:27;;;;;;;7.22;2.72;;;11.70;99.90;;;;;;4969450;28;20905;-68
2023/05/19 02:24:55;;;;;;;7.93;2.80;;;11.70;99.90;;;;;;4967908;28;20407;-68
2023/05/19 02:27:21;;;;;;;9.45;3.17;;;11.70;99.90;;;;;;4969253;28;20428;-68
2023/05/19 02:29:46;;;;;;;9.53;2.90;;;11.70;99.90;;;;;;4970073;28;20471;-68
2023/05/19 02:32:12;;;;;;;7.20;2.83;;;11.80;99.90;;;;;;4970292;28;20419;-68
2023/05/19 02:34:38;;;;;;;8.70;3.10;;;11.80;99.90;;;;;;4969285;28;20408;-68
2023/05/19 02:37:03;;;;;;;9.02;2.88;;;11.80;99.90;;;;;;4969139;28;20423;-68
2023/05/19 02:39:33;;;;;;;10.43;2.90;;;11.70;99.90;;;;;;4969578;28;20408;-68
2023/05/19 02:41:59;;;;;;;7.82;2.90;;;11.70;99.90;;;;;;4969053;28;20412;-62
2023/05/19 02:44:25;;;;;;;8.80;2.70;;;11.60;99.90;;;;;;4969763;28;20473;-68
2023/05/19 02:46:50;;;;;;;7.60;2.93;;;11.60;1.00;;;;;;4968601;28;20411;-69
2023/05/19 02:49:16;;;;;;;7.97;2.57;;;11.60;1.00;;;;;;4968567;28;20480;-68
2023/05/19 02:51:42;;;;;;;9.82;3.10;;;11.60;99.90;;;;;;4969229;28;20409;-68
2023/05/19 02:54:07;;;;;;;7.70;2.50;;;11.50;1.00;;;;;;4968275;28;20628;-68
2023/05/19 02:56:33;;;;;;;8.50;3.43;;;11.50;1.00;;;;;;4970737;28;20750;-61
2023/05/19 02:58:58;;;;;;;8.23;2.88;;;11.50;1.00;;;;;;4968481;28;20944;-68
2023/05/19 03:01:24;;;;;;;11.40;2.83;;;11.50;1.00;;;;;;4968081;28;20465;-69
2023/05/19 03:03:50;;;;;;;6.90;2.20;;;11.50;1.00;;;;;;4960649;28;20917;-68
2023/05/19 03:06:16;;;;;;;8.88;2.47;;;11.50;1.00;;;;;;4965159;28;20415;-68
2023/05/19 03:08:42;;;;;;;6.97;2.70;;;11.50;1.00;;;;;;4968479;28;20826;-68
2023/05/19 03:11:08;;;;;;;8.65;2.72;;;11.50;1.00;;;;;;4970629;28;20441;-68
2023/05/19 03:13:33;;;;;;;7.83;3.10;;;11.50;1.00;;;;;;4969289;28;20384;-61
2023/05/19 03:16:00;;;;;;;9.43;3.00;;;11.50;1.00;;;;;;4972850;28;20408;-68
2023/05/19 03:18:26;;;;;;;8.35;3.00;;;11.50;1.00;;;;;;4973038;28;20489;-69
2023/05/19 03:20:55;;;;;;;9.00;2.75;;;11.60;1.00;;;;;;4971917;28;20583;-68
2023/05/19 03:23:21;;;;;;;7.82;2.85;;;11.50;1.00;;;;;;4972726;28;20411;-68
2023/05/19 03:25:46;;;;;;;9.90;3.00;;;11.40;1.00;;;;;;4971786;28;20420;-68
2023/05/19 03:28:13;;;;;;;9.17;2.60;;;11.30;1.00;;;;;;4973898;28;20515;-68
2023/05/19 03:30:39;;;;;;;7.93;2.63;;;11.30;1.00;;;;;;4970032;28;20479;-67
2023/05/19 03:33:04;;;;;;;9.27;3.07;;;11.20;1.00;;;;;;4971109;28;20544;-68
2023/05/19 03:35:31;;;;;;;8.88;2.70;;;11.20;1.00;;;;;;4972285;28;20416;-68
2023/05/19 03:37:56;;;;;;;8.70;3.05;;;11.20;1.00;;;;;;4967264;28;20413;-68
2023/05/19 03:40:22;;;;;;;10.70;3.00;;;11.20;1.00;;;;;;4972428;28;20399;-67
2023/05/19 03:42:47;;;;;;;10.80;3.17;;;11.10;1.00;;;;;;4959210;28;20390;-67
2023/05/19 03:45:13;;;;;;;9.57;2.83;;;11.00;1.00;;;;;;4954911;29;20409;-67
2023/05/19 03:47:39;;;;;;;9.30;3.00;;;11.00;1.00;;;;;;4960887;28;20447;-67
2023/05/19 03:50:05;;;;;;;8.20;2.60;;;10.00;1.00;;;;;;4973290;28;20728;-68
2023/05/19 03:52:30;;;;;;;8.20;2.90;;;11.00;1.00;;;;;;4974151;28;20435;-68
2023/05/19 03:54:56;;;;;;;7.85;2.80;;;11.00;1.00;;;;;;4941679;29;20449;-68
2023/05/19 03:57:22;;;;;;;10.80;3.20;;;11.00;1.00;;;;;;4954507;29;20402;-68
2023/05/19 03:59:47;;;;;;;11.38;3.20;;;11.00;1.00;;;;;;4953863;29;20390;-68
2023/05/19 04:02:13;;;;;;;9.40;3.47;;;10.90;1.00;;;;;;4969453;28;20408;-68
2023/05/19 04:04:39;;;;;;;9.13;2.92;;;10.90;1.00;;;;;;4967964;28;20827;-61
2023/05/19 04:07:04;;;;;;;10.10;3.00;;;10.90;1.00;;;;;;4974857;28;20426;-69
2023/05/19 04:09:33;;;;;;;7.30;2.80;;;10.90;1.00;;;;;;4969475;28;20404;-68
2023/05/19 04:12:00;;;;;;;7.80;3.20;;;11.00;1.00;;;;;;4967750;28;20408;-69
2023/05/19 04:14:26;;;;;;;9.60;3.10;;;11.00;1.00;;;;;;4957728;28;20448;-69
2023/05/19 04:16:52;;;;;;;10.97;3.13;;;11.00;1.00;;;;;;4961326;28;20522;-68
2023/05/19 04:19:18;;;;;;;9.90;2.92;;;10.90;1.00;;;;;;4961395;28;20408;-66
2023/05/19 04:21:43;;;;;;;7.37;2.87;;;10.70;1.00;;;;;;4970545;28;20818;-69
2023/05/19 04:24:09;;;;;;;7.00;3.20;;;10.70;1.00;;;;;;4968095;28;20427;-68
2023/05/19 04:26:37;;;;;;;7.80;3.17;;;10.70;1.00;;;;;;4969514;28;20392;-61
2023/05/19 04:29:03;;;;;;;7.63;2.60;;;10.70;1.00;;;;;;4969993;28;20496;-68
2023/05/19 04:31:29;;;;;;;10.00;2.90;;;10.80;1.00;;;;;;4971213;28;20428;-66
2023/05/19 04:33:55;;;;;;;11.27;2.75;;;10.90;1.00;;;;;;4953068;28;20454;-67
2023/05/19 04:36:21;;;;;;;9.10;2.60;;;11.00;1.00;;;;;;4972140;28;20414;-65
2023/05/19 04:38:47;;;;;;;12.17;3.00;;;11.00;1.00;;;;;;4970223;28;20420;-66
2023/05/19 04:41:15;;;;;;;11.23;3.13;;;11.10;1.00;;;;;;4972167;28;20507;-69
2023/05/19 04:43:43;;;;;;;7.82;2.60;;;11.20;1.00;;;;;;4970294;28;20408;-68
2023/05/19 04:46:10;;;;;;;10.45;3.03;;;11.30;1.00;;;;;;4972335;28;20404;-69
2023/05/19 04:48:36;;;;;;;9.52;2.70;;;11.40;1.00;;;;;;4972122;28;20727;-61
2023/05/19 04:51:02;;;;;;;7.47;3.20;;;11.40;1.00;;;;;;4953111;28;20394;-69
2023/05/19 04:53:28;;;;;;;8.60;2.70;;;11.60;1.00;;;;;;4953182;29;20397;-68
2023/05/19 04:55:55;;;;;;;8.00;2.90;;;11.60;1.00;;;;;;4960920;28;20444;-67
2023/05/19 04:58:21;;;;;;;8.30;3.00;;;11.80;1.00;;;;;;4972198;28;20430;-68
2023/05/19 05:00:46;;;;;;;8.57;2.93;;;12.10;1.00;;;;;;4969886;28;20874;-69
2023/05/19 05:03:13;;;;;;;10.75;3.00;;;12.30;1.00;;;;;;4971734;28;20388;-69
2023/05/19 05:05:39;;;;;;;8.35;2.80;;;12.40;1.00;;;;;;4970693;28;20873;-61
2023/05/19 05:08:05;;;;;;;7.57;2.50;;;12.60;99.90;;;;;;4972047;28;20393;-69
2023/05/19 05:10:31;;;;;;;8.30;2.83;;;12.90;99.90;;;;;;4971958;28;20436;-67
2023/05/19 05:12:57;;;;;;;9.50;2.90;;;12.70;99.90;;;;;;4971352;28;20950;-68
2023/05/19 05:15:23;;;;;;;8.68;2.55;;;13.00;99.90;;;;;;4971075;28;20416;-69
2023/05/19 05:17:49;;;;;;;8.00;2.30;;;13.30;99.90;;;;;;4971290;28;20396;-68
2023/05/19 05:20:15;;;;;;;8.20;2.40;;;13.50;99.90;;;;;;4972015;28;20420;-68
2023/05/19 05:22:41;;;;;;;9.15;2.45;;;13.50;99.90;;;;;;4970899;28;20810;-67
2023/05/19 05:25:07;;;;;;;7.03;2.65;;;13.70;99.90;;;;;;4971670;28;20973;-65
2023/05/19 05:27:33;;;;;;;9.73;3.23;;;13.90;99.90;;;;;;4971730;28;20431;-68
2023/05/19 05:29:59;;;;;;;15.35;6.90;;;13.80;99.90;;;;;;4970479;28;20447;-66
2023/05/19 05:32:24;;;;;;;19.63;9.40;;;13.70;99.90;;;;;;4971343;28;20854;-62
2023/05/19 05:34:52;;;;;;;11.02;4.72;;;13.80;99.90;;;;;;4968190;28;21612;-67
2023/05/19 05:37:18;;;;;;;13.90;6.60;;;13.80;99.90;;;;;;4970905;28;20468;-68
2023/05/19 05:39:44;;;;;;;10.73;5.10;;;13.80;99.90;;;;;;4970718;28;20427;-68
2023/05/19 05:42:09;;;;;;;11.73;3.17;;;13.90;99.90;;;;;;4952719;29;20871;-67
2023/05/19 05:44:35;;;;;;;7.60;3.53;;;14.90;99.90;;;;;;4952242;29;20468;-65
2023/05/19 05:47:02;;;;;;;7.90;2.60;;;15.80;99.90;;;;;;4965694;28;20415;-65
2023/05/19 05:49:28;;;;;;;8.60;2.80;;;16.60;99.90;;;;;;4969638;28;20420;-65
2023/05/19 05:51:54;;;;;;;10.50;2.90;;;17.00;99.90;;;;;;4970873;28;20418;-65
2023/05/19 05:54:23;;;;;;;8.20;2.80;;;17.30;99.90;;;;;;4969583;28;20811;-64
2023/05/19 05:56:50;;;;;;;7.38;3.03;;;17.60;99.90;;;;;;4969746;28;20842;-67
2023/05/19 05:59:15;;;;;;;8.25;3.30;;;17.80;99.90;;;;;;4971640;28;20396;-68
2023/05/19 06:01:42;;;;;;;9.00;3.10;;;17.60;99.90;;;;;;4968110;28;20430;-62
2023/05/19 06:04:08;;;;;;;10.55;3.10;;;17.90;99.90;;;;;;4961079;28;20791;-62
2023/05/19 06:06:35;;;;;;;9.80;2.80;;;17.90;99.90;;;;;;4963648;28;20408;-67
2023/05/19 06:09:00;;;;;;;9.23;2.90;;;17.60;99.90;;;;;;4969388;28;20439;-63
2023/05/19 06:11:27;;;;;;;8.20;3.00;;;17.70;99.90;;;;;;4966491;28;20447;-68
2023/05/19 06:13:53;;;;;;;9.32;3.38;;;17.40;99.90;;;;;;4967893;28;20978;-66
2023/05/19 06:16:18;;;;;;;8.90;2.97;;;17.30;99.90;;;;;;4970167;28;20500;-66
2023/05/19 06:18:44;;;;;;;10.17;3.10;;;17.40;99.90;;;;;;4970281;28;20730;-67
2023/05/19 06:21:12;;;;;;;9.90;3.40;;;17.20;99.90;;;;;;4970535;28;20497;-67
2023/05/19 06:23:40;;;;;;;9.10;3.50;;;17.80;99.90;;;;;;4970448;28;20802;-61
2023/05/19 06:26:06;;;;;;;10.00;3.37;;;18.00;99.90;;;;;;4970746;28;20423;-67
2023/05/19 06:28:32;;;;;;;8.48;3.20;;;18.30;99.90;;;;;;4971061;28;20818;-67
2023/05/19 06:30:58;;;;;;;8.50;3.55;;;18.60;99.90;;;;;;4969748;28;20470;-65
2023/05/19 06:33:24;;;;;;;11.53;3.70;;;19.90;99.90;;;;;;4970925;28;20811;-66
2023/05/19 06:35:50;;;;;;;8.23;3.28;;;20.00;99.90;;;;;;4970089;28;20531;-64
2023/05/19 06:38:16;;;;;;;8.10;4.20;;;20.80;99.90;;;;;;4971118;28;20813;-61
2023/05/19 06:40:41;;;;;;;9.87;5.70;;;21.20;99.90;;;;;;4954042;28;20443;-63
2023/05/19 06:43:07;;;;;;;9.53;6.97;;;21.90;99.90;;;;;;4951440;29;20405;-63
2023/05/19 06:45:33;;;;;;;10.07;6.07;;;23.00;99.90;;;;;;4951685;29;20483;-63
2023/05/19 06:47:59;;;;;;;8.60;6.60;;;23.40;99.90;;;;;;4950370;29;20844;-66
2023/05/19 06:50:24;;;;;;;10.07;7.65;;;23.90;99.90;;;;;;4951423;29;20479;-66
2023/05/19 06:52:50;;;;;;;10.75;7.40;;;23.90;99.90;;;;;;4951089;29;20951;-67
2023/05/19 06:55:16;;;;;;;9.15;6.38;;;23.70;99.90;;;;;;4951541;29;20465;-66
2023/05/19 06:57:42;;;;;;;11.05;6.20;;;22.70;99.90;;;;;;4957483;28;20404;-62
2023/05/19 07:00:10;;;;;;;8.60;5.40;;;22.00;99.90;;;;;;4970831;28;20862;-63
2023/05/19 07:02:37;;;;;;;11.70;5.30;;;20.50;99.90;;;;;;4970588;28;20480;-63
2023/05/19 07:05:03;;;;;;;8.20;5.00;;;19.90;99.90;;;;;;4966754;28;20415;-66
2023/05/19 07:07:29;;;;;;;9.63;4.70;;;19.80;99.90;;;;;;4970457;28;20475;-65
2023/05/19 07:09:55;;;;;;;9.13;5.37;;;19.80;99.90;;;;;;4968723;28;20404;-65
2023/05/19 07:12:20;;;;;;;10.03;4.37;;;19.90;99.90;;;;;;4969852;28;20407;-65
2023/05/19 07:14:46;;;;;;;8.93;4.70;;;19.90;99.90;;;;;;4949505;28;20516;-64
2023/05/19 07:17:12;;;;;;;12.43;5.07;;;20.20;99.90;;;;;;4969647;28;20397;-62
2023/05/19 07:19:37;;;;;;;10.93;5.53;;;19.90;99.90;;;;;;4970453;28;20848;-64
2023/05/19 07:22:03;;;;;;;8.33;4.60;;;21.10;99.90;;;;;;4969965;28;20388;-64
2023/05/19 07:24:30;;;;;;;11.13;5.43;;;22.20;99.90;;;;;;4953226;28;20397;-67
2023/05/19 07:26:55;;;;;;;10.20;5.63;;;23.10;99.90;;;;;;4969584;28;20450;-65
2023/05/19 07:29:21;;;;;;;8.40;5.05;;;23.20;99.90;;;;;;4970780;28;20400;-66
2023/05/19 07:31:47;;;;;;;11.68;5.25;;;22.60;99.90;;;;;;4969731;28;20829;-65
2023/05/19 07:34:12;;;;;;;7.43;4.38;;;21.30;99.90;;;;;;4970250;28;20464;-66
2023/05/19 07:36:38;;;;;;;9.52;4.22;;;20.20;99.90;;;;;;4970189;28;20731;-63
2023/05/19 07:39:04;;;;;;;7.20;4.43;;;19.70;99.90;;;;;;4969839;28;20392;-66
2023/05/19 07:41:29;;;;;;;10.63;4.60;;;18.70;99.90;;;;;;4970355;28;20826;-66
2023/05/19 07:43:55;;;;;;;8.53;4.03;;;18.30;99.90;;;;;;4969706;28;20391;-66
2023/05/19 07:46:21;;;;;;;10.02;4.28;;;17.70;99.90;;;;;;4970213;28;20831;-66
2023/05/19 07:48:47;;;;;;;11.75;5.03;;;17.50;99.90;;;;;;4969227;28;20380;-66
2023/05/19 07:51:13;;;;;;;11.40;4.50;;;17.40;99.90;;;;;;4970309;28;20404;-66
2023/05/19 07:53:38;;;;;;;9.90;4.35;;;17.20;99.90;;;;;;4970107;28;20412;-60
2023/05/19 07:56:04;;;;;;;10.03;3.97;;;17.00;99.90;;;;;;4969500;28;20408;-66
2023/05/19 07:58:30;;;;;;;8.88;3.90;;;17.10;99.90;;;;;;4969847;28;20401;-66
2023/05/19 08:00:57;;;;;;;9.80;4.00;;;17.10;99.90;;;;;;4970964;28;20443;-64
2023/05/19 08:03:23;;;;;;;9.65;3.50;;;16.90;99.90;;;;;;4973715;28;20385;-66
2023/05/19 08:05:49;;;;;;;7.80;3.57;;;17.10;99.90;;;;;;4973053;28;20411;-65
2023/05/19 08:08:18;;;;;;;9.68;3.88;;;17.20;99.90;;;;;;4973599;28;20742;-65
2023/05/19 08:10:44;;;;;;;12.23;3.80;;;17.00;99.90;;;;;;4972720;28;20475;-64
2023/05/19 08:13:10;;;;;;;9.07;3.63;;;16.90;99.90;;;;;;4973345;28;20388;-65
2023/05/19 08:15:36;;;;;;;9.80;3.97;;;17.30;99.90;;;;;;4973432;28;20428;-66
2023/05/19 08:18:03;;;;;;;9.40;4.10;;;17.10;99.90;;;;;;4972347;28;20407;-65
2023/05/19 08:20:29;;;;;;;8.00;3.63;;;17.00;99.90;;;;;;4973234;28;20488;-65
2023/05/19 08:22:55;;;;;;;8.63;3.50;;;16.80;99.90;;;;;;4972592;28;20968;-65
2023/05/19 08:25:21;;;;;;;9.47;3.40;;;16.70;99.90;;;;;;4972885;28;20385;-65
2023/05/19 08:27:47;;;;;;;8.02;3.20;;;16.70;99.90;;;;;;4972630;28;20408;-65
2023/05/19 08:30:12;;;;;;;9.30;4.03;;;16.60;99.90;;;;;;4972579;28;20413;-65
2023/05/19 08:32:38;;;;;;;9.27;3.60;;;16.50;99.90;;;;;;4972828;28;20427;-65
2023/05/19 08:35:04;;;;;;;10.80;3.15;;;16.50;99.90;;;;;;4954984;28;20463;-66
2023/05/19 08:37:29;;;;;;;9.77;3.83;;;16.70;99.90;;;;;;4972728;28;20398;-65
2023/05/19 08:39:56;;;;;;;7.57;3.50;;;16.60;99.90;;;;;;4972188;28;20801;-64
2023/05/19 08:42:21;;;;;;;8.03;3.23;;;16.60;99.90;;;;;;4973054;28;20388;-65
2023/05/19 08:44:47;;;;;;;10.10;3.50;;;16.70;99.90;;;;;;4971748;28;20407;-66
2023/05/19 08:47:14;;;;;;;9.40;3.43;;;16.80;99.90;;;;;;4972565;28;20946;-63
2023/05/19 08:49:50;;;;;;;9.83;3.73;;;16.90;99.90;;;;;;4972700;28;20407;-63
2023/05/19 08:52:30;;;;;;;13.85;3.92;;;16.70;99.90;;;;;;4972410;28;20734;-65
2023/05/19 08:55:11;;;;;;;7.87;3.43;;;16.50;99.90;;;;;;4971669;28;20417;-65
2023/05/19 08:57:37;;;;;;;12.60;4.30;;;16.60;99.90;;;;;;4972218;28;20412;-65
2023/05/19 09:00:11;;;;;;;8.70;3.23;;;16.60;99.90;;;;;;4971514;28;20399;-65
2023/05/19 09:02:38;;;;;;;7.50;3.23;;;16.70;99.90;;;;;;4972238;28;20402;-66
2023/05/19 09:05:05;;;;;;;7.77;3.50;;;16.50;99.90;;;;;;4970947;28;20855;-66
2023/05/19 09:07:34;;;;;;;10.97;4.17;;;16.30;99.90;;;;;;4971239;28;20447;-66
2023/05/19 09:10:00;;;;;;;13.40;5.20;;;16.30;99.90;;;;;;4970616;28;20430;-63
2023/05/19 09:12:26;;;;;;;9.25;3.40;;;16.40;99.90;;;;;;4970038;28;20618;-66
2023/05/19 09:14:52;;;;;;;13.50;4.60;;;16.40;99.90;;;;;;4954116;28;20497;-65
2023/05/19 09:17:18;;;;;;;10.30;4.15;;;16.40;99.90;;;;;;4951823;29;20398;-66
2023/05/19 09:19:46;;;;;;;10.23;3.60;;;16.30;99.90;;;;;;4951384;29;20389;-59
2023/05/19 09:22:14;;;;;;;12.52;3.50;;;16.30;99.90;;;;;;4935215;29;20424;-65
2023/05/19 09:24:41;;;;;;;8.15;3.33;;;16.40;99.90;;;;;;4952609;29;20390;-59
2023/05/19 09:27:06;;;;;;;9.98;3.38;;;16.60;99.90;;;;;;4952183;29;20409;-65
2023/05/19 09:29:32;;;;;;;9.75;3.42;;;16.60;99.90;;;;;;4952193;29;20418;-66
2023/05/19 09:32:02;;;;;;;8.80;3.10;;;16.50;99.90;;;;;;4952316;29;20390;-66
2023/05/19 09:34:28;;;;;;;10.30;3.70;;;16.50;99.90;;;;;;4952490;29;20418;-66
2023/05/19 09:36:54;;;;;;;12.07;3.90;;;16.70;99.90;;;;;;4951883;29;20398;-65
2023/05/19 09:39:21;;;;;;;8.10;3.37;;;16.70;99.90;;;;;;4952198;29;20420;-62
2023/05/19 09:41:53;;;;;;;8.68;3.60;;;16.80;99.90;;;;;;4951699;29;20386;-66
2023/05/19 09:44:19;;;;;;;7.60;3.03;;;16.80;99.90;;;;;;4952548;29;20390;-66
2023/05/19 09:46:52;;;;;;;8.53;3.40;;;16.80;99.90;;;;;;4951692;29;20394;-65
2023/05/19 09:49:30;;;;;;;8.25;3.22;;;16.70;99.90;;;;;;4952232;29;20493;-66
2023/05/19 09:52:02;;;;;;;8.38;3.50;;;16.70;99.90;;;;;;4951603;29;20386;-65
2023/05/19 09:54:30;;;;;;;8.50;3.47;;;16.80;99.90;;;;;;4952087;29;20414;-66
2023/05/19 09:56:59;;;;;;;11.73;3.45;;;16.70;99.90;;;;;;4951408;29;20868;-66
2023/05/19 09:59:26;;;;;;;7.60;3.30;;;16.70;99.90;;;;;;4952083;29;20461;-65
2023/05/19 10:01:54;;;;;;;10.05;3.20;;;16.80;99.90;;;;;;4950356;29;20824;-66
2023/05/19 10:04:21;;;;;;;13.10;6.20;;;17.10;99.90;;;;;;4950833;29;20394;-66
2023/05/19 10:06:52;;;;;;;8.80;4.05;;;17.20;99.90;;;;;;4950770;29;20394;-65
2023/05/19 10:09:23;;;;;;;8.50;3.70;;;17.20;99.90;;;;;;4950985;29;20815;-66
2023/05/19 10:11:57;;;;;;;7.90;3.33;;;17.30;99.90;;;;;;4950658;29;20386;-66
2023/05/19 10:14:27;;;;;;;6.90;3.30;;;17.50;99.90;;;;;;4963639;28;20470;-65
2023/05/19 10:16:57;;;;;;;9.88;4.25;;;17.60;99.90;;;;;;4969564;28;20385;-66
2023/05/19 10:19:24;;;;;;;10.25;3.33;;;17.70;99.90;;;;;;4970640;28;20447;-66
2023/05/19 10:21:51;;;;;;;10.02;3.70;;;17.50;99.90;;;;;;4970311;28;20392;-66
2023/05/19 10:24:17;;;;;;;9.38;3.70;;;17.70;99.90;;;;;;4970194;28;20392;-66
2023/05/19 10:26:47;;;;;;;9.18;3.38;;;17.70;99.90;;;;;;4970846;28;20888;-59
2023/05/19 10:29:20;;;;;;;10.80;4.05;;;17.70;99.90;;;;;;4970546;28;20458;-66
2023/05/19 10:31:49;;;;;;;8.82;3.75;;;17.60;99.90;;;;;;4970299;28;20424;-62
2023/05/19 10:34:49;;;;;;;8.63;3.70;;;17.40;99.90;;;;;;4970627;28;20427;-66
2023/05/19 10:37:40;;;;;;;10.15;3.40;;;17.30;99.90;;;;;;4970822;28;20892;-67
2023/05/19 10:40:19;;;;;;;8.20;3.00;;;17.30;99.90;;;;;;4970039;28;20735;-66
2023/05/19 10:43:07;;;;;;;8.60;3.70;;;17.60;99.90;;;;;;4970123;28;21223;-59
2023/05/19 10:45:40;;;;;;;8.70;3.47;;;17.90;99.90;;;;;;4970981;28;20420;-65
2023/05/19 10:48:11;;;;;;;9.15;3.92;;;17.90;99.90;;;;;;4969726;28;20415;-66
2023/05/19 10:50:36;;;;;;;9.13;3.45;;;17.50;99.90;;;;;;4970703;28;20795;-65
2023/05/19 10:53:02;;;;;;;9.32;3.60;;;17.50;99.90;;;;;;4970116;28;20388;-65
2023/05/19 10:55:48;;;;;;;9.90;3.43;;;17.70;99.90;;;;;;4970388;28;20424;-66
2023/05/19 10:58:14;;;;;;;9.50;3.20;;;18.00;99.90;;;;;;4970386;28;20696;-66
2023/05/19 11:00:42;;;;;;;10.33;3.63;;;18.00;99.90;;;;;;4970951;28;20395;-68
2023/05/19 11:03:15;;;;;;;9.10;4.10;;;18.20;99.90;;;;;;4970115;28;20446;-65
2023/05/19 11:05:44;;;;;;;9.47;3.87;;;18.10;99.90;;;;;;4966372;28;20416;-64
2023/05/19 11:08:11;;;;;;;7.97;3.60;;;17.90;99.90;;;;;;4967303;28;20964;-65
2023/05/19 11:10:37;;;;;;;10.13;3.47;;;18.00;99.90;;;;;;4967888;28;20607;-66
2023/05/19 11:13:06;;;;;;;8.48;3.30;;;18.10;99.90;;;;;;4965973;28;20410;-65
2023/05/19 11:15:35;;;;;;;9.47;3.60;;;18.10;99.90;;;;;;4968477;28;20479;-64
2023/05/19 11:18:03;;;;;;;10.63;3.88;;;17.90;99.90;;;;;;4967447;28;21231;-65
2023/05/19 11:20:33;;;;;;;9.73;3.25;;;17.70;99.90;;;;;;4970206;28;20398;-65
2023/05/19 11:23:18;;;;;;;9.20;2.90;;;17.40;99.90;;;;;;4969182;28;20412;-65
2023/05/19 11:25:48;;;;;;;9.70;3.60;;;17.80;99.90;;;;;;4969732;28;20410;-59
2023/05/19 11:28:18;;;;;;;8.18;3.00;;;17.70;99.90;;;;;;4954534;28;20421;-64
2023/05/19 11:30:48;;;;;;;8.95;3.58;;;17.70;99.90;;;;;;4953132;28;20519;-59
2023/05/19 11:33:18;;;;;;;10.40;3.50;;;17.70;99.90;;;;;;4970288;28;20974;-66
2023/05/19 11:35:46;;;;;;;9.57;3.60;;;17.70;99.90;;;;;;4971254;28;20462;-59
2023/05/19 11:38:13;;;;;;;10.18;3.97;;;17.40;99.90;;;;;;4965945;28;20376;-61
2023/05/19 11:40:42;;;;;;;10.67;4.33;;;17.40;99.90;;;;;;4974080;28;20436;-67
2023/05/19 11:43:08;;;;;;;8.67;3.80;;;17.40;99.90;;;;;;4973347;28;20513;-67
2023/05/19 11:45:34;;;;;;;8.65;3.75;;;17.30;99.90;;;;;;4972601;28;20870;-66
2023/05/19 11:48:01;;;;;;;11.53;4.23;;;17.40;99.90;;;;;;4973303;28;20466;-67
2023/05/19 11:50:27;;;;;;;11.90;4.00;;;17.60;99.90;;;;;;4973501;28;20419;-66
2023/05/19 11:52:53;;;;;;;8.75;3.33;;;17.80;99.90;;;;;;4972820;28;20400;-67
2023/05/19 11:55:23;;;;;;;9.77;3.50;;;18.20;99.90;;;;;;4973666;28;20412;-65
2023/05/19 11:58:02;;;;;;;7.68;3.55;;;18.40;99.90;;;;;;4972873;28;20427;-66
2023/05/19 12:00:30;;;;;;;11.00;4.20;;;18.30;99.90;;;;;;4959573;28;20401;-65
2023/05/19 12:02:56;;;;;;;7.50;3.47;;;18.30;99.90;;;;;;4972841;28;20400;-65
2023/05/19 12:05:26;;;;;;;9.13;3.40;;;18.50;99.90;;;;;;4973460;28;20411;-66
2023/05/19 12:07:52;;;;;;;12.07;3.77;;;18.30;99.90;;;;;;4972253;28;20392;-66
2023/05/19 12:10:25;;;;;;;9.68;3.20;;;18.40;99.90;;;;;;4973293;28;20941;-66
2023/05/19 12:12:52;;;;;;;7.85;3.80;;;18.50;99.90;;;;;;4972599;28;20400;-65
2023/05/19 12:15:19;;;;;;;10.37;3.60;;;18.80;99.90;;;;;;4973311;28;20942;-66
2023/05/19 12:17:49;;;;;;;8.20;3.20;;;18.90;99.90;;;;;;4969208;28;20400;-60
2023/05/19 12:20:15;;;;;;;10.32;3.40;;;19.10;99.90;;;;;;4973391;28;20384;-66
2023/05/19 12:22:40;;;;;;;7.55;3.20;;;19.10;99.90;;;;;;4973235;28;20380;-65
2023/05/19 12:25:06;;;;;;;10.07;3.50;;;18.70;99.90;;;;;;4972923;28;20408;-66
2023/05/19 12:27:36;;;;;;;8.60;3.80;;;18.50;99.90;;;;;;4973266;28;20413;-64
2023/05/19 12:30:03;;;;;;;9.82;3.80;;;18.30;99.90;;;;;;4972262;28;20420;-67
2023/05/19 12:32:28;;;;;;;10.87;4.20;;;18.30;99.90;;;;;;4973186;28;20475;-66
2023/05/19 12:34:57;;;;;;;11.38;3.70;;;18.30;99.90;;;;;;4972086;28;20416;-63
2023/05/19 12:37:28;;;;;;;10.13;3.75;;;18.00;99.90;;;;;;4972556;28;20401;-66
2023/05/19 12:39:55;;;;;;;10.30;3.60;;;18.00;99.90;;;;;;4967901;28;20406;-66
2023/05/19 12:42:21;;;;;;;7.50;3.60;;;17.70;99.90;;;;;;4967543;28;20459;-66
2023/05/19 12:44:51;;;;;;;12.60;3.75;;;17.70;99.90;;;;;;4969142;28;20403;-60
2023/05/19 12:47:21;;;;;;;8.30;3.58;;;17.30;99.90;;;;;;4953589;28;20701;-66
2023/05/19 12:49:59;;;;;;;10.30;3.80;;;17.20;99.90;;;;;;4971550;28;20755;-61